Time;durP1;ratioP1;P1;durP2;ratioP2;P2;SDS_P1;SDS_P2;PMS_P1;PMS_P2;Temp;Humidity;BMP_temperature;BMP_pressure;BME280_temperature;BME280_humidity;BME280_pressure;Samples;Min_cycle;Max_cycle;Signal;HPM_P1;HPM_P2
2022/02/27 00:02:22;;;;;;;;;6.25;6.25;;;;;6.18;53.09;102406.81;5080902;27;45323;-63
2022/02/27 00:04:48;;;;;;;;;9.75;7.50;;;;;6.15;52.36;102410.31;5081111;28;45335;-63
2022/02/27 00:07:13;;;;;;;;;8.50;6.75;;;;;6.15;52.98;102416.41;5081179;28;45314;-63
2022/02/27 00:09:39;;;;;;;;;7.50;7.00;;;;;6.16;53.05;102414.66;5080657;28;45925;-63
2022/02/27 00:12:05;;;;;;;;;8.75;6.50;;;;;6.13;52.66;102410.31;5080932;28;45298;-63
2022/02/27 00:14:30;;;;;;;;;12.75;8.50;;;;;6.12;53.45;102410.34;5081123;28;45395;-63
2022/02/27 00:16:55;;;;;;;;;15.00;14.25;;;;;6.10;53.06;102413.00;5080870;28;45335;-62
2022/02/27 00:19:23;;;;;;;;;13.50;9.00;;;;;6.09;52.68;102402.56;5074589;27;46222;-63
2022/02/27 00:21:49;;;;;;;;;9.00;8.00;;;;;6.06;53.32;102413.91;5082169;27;45189;-63
2022/02/27 00:24:16;;;;;;;;;9.00;6.00;;;;;6.05;52.83;102408.72;5083817;27;45277;-63
2022/02/27 00:26:41;;;;;;;;;11.50;8.50;;;;;6.04;52.62;102415.69;5084502;27;45409;-63
2022/02/27 00:29:07;;;;;;;;;8.00;6.00;;;;;6.03;52.75;102410.50;5083940;27;45387;-63
2022/02/27 00:31:33;;;;;;;;;8.75;8.00;;;;;6.02;52.91;102411.38;5084112;27;45277;-63
2022/02/27 00:33:58;;;;;;;;;9.00;8.25;;;;;6.01;53.37;102415.75;5091712;27;45337;-62
2022/02/27 00:36:24;;;;;;;;;12.50;7.50;;;;;5.99;53.44;102414.88;5085468;27;45467;-63
2022/02/27 00:38:49;;;;;;;;;10.75;8.50;;;;;5.96;52.97;102409.69;5085264;27;45454;-62
2022/02/27 00:41:15;;;;;;;;;12.25;7.75;;;;;5.95;53.19;102407.97;5076056;27;45443;-62
2022/02/27 00:43:40;;;;;;;;;12.75;7.00;;;;;5.95;53.54;102407.13;5092760;27;45186;-62
2022/02/27 00:46:06;;;;;;;;;6.25;5.75;;;;;5.94;52.46;102403.63;5083961;27;45315;-62
2022/02/27 00:48:32;;;;;;;;;8.75;8.75;;;;;5.92;52.91;102405.38;5083572;27;45259;-62
2022/02/27 00:50:58;;;;;;;;;10.75;8.00;;;;;5.91;53.41;102405.41;5083936;28;45449;-62
2022/02/27 00:53:24;;;;;;;;;9.25;6.50;;;;;5.87;53.00;102408.03;5083936;27;45312;-63
2022/02/27 00:55:50;;;;;;;;;6.25;6.25;;;;;5.86;53.50;102411.53;5084117;27;45560;-62
2022/02/27 00:58:15;;;;;;;;;13.25;6.25;;;;;5.83;53.00;102411.56;5083827;28;45479;-63
2022/02/27 01:00:41;;;;;;;;;10.75;6.25;;;;;5.83;52.80;102405.47;5083633;28;45315;-63
2022/02/27 01:03:07;;;;;;;;;10.25;5.25;;;;;5.82;53.91;102401.13;5084171;28;45307;-63
2022/02/27 01:05:32;;;;;;;;;8.00;3.25;;;;;5.81;54.14;102408.13;5083839;27;45323;-63
2022/02/27 01:07:58;;;;;;;;;9.75;6.25;;;;;5.80;53.90;102402.91;5083561;28;45304;-63
2022/02/27 01:10:23;;;;;;;;;10.75;10.75;;;;;5.80;53.07;102411.63;5083504;28;45307;-63
2022/02/27 01:12:49;;;;;;;;;10.25;6.00;;;;;5.79;53.24;102412.50;5083972;28;45260;-63
2022/02/27 01:15:14;;;;;;;;;12.00;6.00;;;;;5.77;53.87;102406.44;5083640;27;45490;-63
2022/02/27 01:17:40;;;;;;;;;6.50;6.50;;;;;5.76;53.66;102412.53;5083548;28;45913;-63
2022/02/27 01:20:07;;;;;;;;;9.00;7.00;;;;;5.75;53.18;102408.19;5083501;27;45248;-63
2022/02/27 01:22:33;;;;;;;;;12.50;6.00;;;;;5.73;53.06;102401.25;5083392;27;45235;-63
2022/02/27 01:24:58;;;;;;;;;10.75;7.75;;;;;5.72;53.88;102397.78;5083522;27;45284;-63
2022/02/27 01:27:24;;;;;;;;;10.75;9.25;;;;;5.73;53.19;102396.03;5083488;28;45313;-63
2022/02/27 01:29:49;;;;;;;;;14.50;7.50;;;;;5.71;53.10;102385.59;5083204;28;45283;-63
2022/02/27 01:32:15;;;;;;;;;15.25;5.75;;;;;5.69;53.64;102394.31;5083403;27;45415;-62
2022/02/27 01:34:40;;;;;;;;;16.50;8.75;;;;;5.66;53.40;102384.78;5091747;27;45344;-62
2022/02/27 01:37:06;;;;;;;;;9.00;5.50;;;;;5.65;53.42;102377.81;5083318;27;46162;-62
2022/02/27 01:39:32;;;;;;;;;10.50;8.25;;;;;5.62;53.44;102380.47;5085928;27;45444;-62
2022/02/27 01:41:57;;;;;;;;;7.75;5.75;;;;;5.63;54.03;102383.97;5098107;27;45318;-62
2022/02/27 01:44:23;;;;;;;;;13.25;8.25;;;;;5.59;53.53;102376.13;5085603;27;45639;-63
2022/02/27 01:47:18;;;;;;;;;9.00;8.75;;;;;5.58;54.22;102376.16;5082843;27;46079;-62
2022/02/27 01:49:45;;;;;;;;;8.50;6.00;;;;;5.55;53.21;102377.06;5069664;28;45499;-62
2022/02/27 01:52:12;;;;;;;;;6.75;3.00;;;;;5.53;53.34;102381.47;5083116;27;45270;-62
2022/02/27 01:54:38;;;;;;;;;8.75;7.25;;;;;5.49;53.78;102377.13;5083116;27;45477;-62
2022/02/27 01:57:04;;;;;;;;;9.75;6.50;;;;;5.48;53.83;102372.81;5078356;27;46860;-62
2022/02/27 01:59:30;;;;;;;;;9.75;7.25;;;;;5.47;53.42;102380.66;5083238;27;45441;-62
2022/02/27 02:01:55;;;;;;;;;10.00;8.00;;;;;5.46;54.18;102381.56;5083025;28;45268;-62
2022/02/27 02:04:21;;;;;;;;;13.50;8.50;;;;;5.43;54.12;102377.22;5083101;28;45367;-63
2022/02/27 02:06:46;;;;;;;;;9.75;6.50;;;;;5.42;54.40;102378.09;5082576;28;45781;-62
2022/02/27 02:09:12;;;;;;;;;9.50;6.00;;;;;5.39;54.14;102372.91;5082578;28;45395;-62
2022/02/27 02:11:39;;;;;;;;;9.25;6.75;;;;;5.38;53.99;102373.81;5082786;27;45368;-62
2022/02/27 02:14:05;;;;;;;;;8.50;5.50;;;;;5.37;53.92;102366.81;5083102;28;45366;-62
2022/02/27 02:16:45;;;;;;;;;9.25;6.00;;;;;5.35;53.70;102368.59;5082294;27;45263;-62
2022/02/27 02:19:11;;;;;;;;;7.25;6.50;;;;;5.34;53.77;102374.69;5082576;27;45287;-62
2022/02/27 02:21:39;;;;;;;;;8.00;5.00;;;;;5.30;54.21;102360.81;5082658;28;45327;-62
2022/02/27 02:24:04;;;;;;;;;9.50;8.00;;;;;5.30;53.70;102362.56;5082673;27;45313;-62
2022/02/27 02:26:31;;;;;;;;;8.00;7.75;;;;;5.28;54.55;102364.31;5077480;27;45622;-62
2022/02/27 02:28:56;;;;;;;;;9.25;7.75;;;;;5.28;53.94;102365.19;5081916;28;45279;-62
2022/02/27 02:31:22;;;;;;;;;7.00;7.00;;;;;5.25;54.60;102360.00;5082306;27;45298;-62
2022/02/27 02:33:48;;;;;;;;;6.00;5.25;;;;;5.24;54.19;102358.28;5088378;27;45174;-62
2022/02/27 02:36:13;;;;;;;;;6.50;4.50;;;;;5.25;54.11;102356.53;5085250;27;45168;-62
2022/02/27 02:38:39;;;;;;;;;9.50;5.25;;;;;5.23;54.26;102347.84;5082222;27;45333;-62
2022/02/27 02:41:04;;;;;;;;;7.00;5.75;;;;;5.23;54.21;102351.31;5092444;27;45283;-62
2022/02/27 02:43:30;;;;;;;;;6.00;5.75;;;;;5.20;54.35;102358.31;5102901;27;45218;-62
2022/02/27 02:45:55;;;;;;;;;2.00;2.00;;;;;5.18;54.50;102358.34;5101419;27;46224;-62
2022/02/27 02:48:21;;;;;;;;;9.50;6.00;;;;;5.16;53.99;102352.28;5102299;27;45330;-62
2022/02/27 02:50:46;;;;;;;;;6.50;5.75;;;;;5.16;54.49;102356.63;5102665;27;45301;-62
2022/02/27 02:53:12;;;;;;;;;10.00;5.75;;;;;5.15;53.91;102355.75;5102688;27;45315;-62
2022/02/27 02:55:37;;;;;;;;;8.75;6.00;;;;;5.12;53.99;102358.38;5102390;27;46396;-62
2022/02/27 02:58:03;;;;;;;;;8.00;5.25;;;;;5.13;54.66;102359.25;5102601;27;45369;-62
2022/02/27 03:00:28;;;;;;;;;6.25;4.75;;;;;5.10;53.78;102362.78;5102506;27;45247;-62
2022/02/27 03:02:54;;;;;;;;;9.50;8.25;;;;;5.10;54.32;102354.06;5102640;27;45345;-62
2022/02/27 03:05:19;;;;;;;;;5.50;5.00;;;;;5.10;54.96;102359.28;5102197;27;45857;-62
2022/02/27 03:07:45;;;;;;;;;6.50;5.25;;;;;5.08;54.48;102355.84;5102351;27;45310;-62
2022/02/27 03:10:10;;;;;;;;;1.00;1.00;;;;;5.04;54.53;102349.78;5102341;27;45230;-62
2022/02/27 03:12:37;;;;;;;;;8.75;5.50;;;;;5.04;54.85;102350.63;5084121;27;45618;-62
2022/02/27 03:15:05;;;;;;;;;7.75;6.00;;;;;5.05;53.80;102361.94;5102203;27;45275;-62
2022/02/27 03:17:30;;;;;;;;;6.00;5.00;;;;;5.04;54.16;102355.00;5102105;27;45300;-62
2022/02/27 03:19:56;;;;;;;;;8.75;5.25;;;;;5.02;53.85;102354.16;5102218;27;45359;-62
2022/02/27 03:22:21;;;;;;;;;4.25;3.50;;;;;5.00;54.23;102351.56;5102144;27;45382;-62
2022/02/27 03:24:47;;;;;;;;;9.50;6.00;;;;;4.99;54.08;102355.06;5101985;27;46261;-62
2022/02/27 03:27:12;;;;;;;;;4.50;4.50;;;;;4.96;54.52;102357.69;5102275;27;45228;-62
2022/02/27 03:29:39;;;;;;;;;8.00;8.00;;;;;4.96;54.91;102348.97;5101781;27;45374;-62
2022/02/27 03:32:06;;;;;;;;;4.75;4.50;;;;;4.94;54.64;102350.75;5101752;27;45403;-62
2022/02/27 03:34:31;;;;;;;;;4.75;4.50;;;;;4.93;54.68;102342.06;5099493;27;46139;-62
2022/02/27 03:36:57;;;;;;;;;9.50;8.50;;;;;4.93;54.92;102352.50;5081482;28;45278;-62
2022/02/27 03:39:22;;;;;;;;;12.25;6.25;;;;;4.92;55.15;102336.84;5085123;27;45797;-62
2022/02/27 03:41:48;;;;;;;;;9.50;5.25;;;;;4.91;54.15;102340.34;5094935;27;45241;-62
2022/02/27 03:44:13;;;;;;;;;6.00;6.00;;;;;4.90;54.53;102346.47;5084946;27;45122;-62
2022/02/27 03:46:39;;;;;;;;;6.00;5.00;;;;;4.89;53.91;102344.69;5081250;28;45424;-62
2022/02/27 03:49:05;;;;;;;;;6.25;5.00;;;;;4.86;54.38;102350.84;5081111;28;45234;-62
2022/02/27 03:51:32;;;;;;;;;8.00;6.00;;;;;4.85;54.51;102353.47;5081484;28;45732;-62
2022/02/27 03:53:58;;;;;;;;;12.75;6.00;;;;;4.82;54.18;102351.75;5080902;28;45419;-62
2022/02/27 03:56:23;;;;;;;;;5.50;4.00;;;;;4.81;54.87;102357.84;5081525;28;45398;-62
2022/02/27 03:58:49;;;;;;;;;6.50;4.25;;;;;4.80;54.69;102363.94;5084956;27;45254;-62
2022/02/27 04:01:14;;;;;;;;;8.75;5.50;;;;;4.79;54.42;102363.97;5084820;27;45473;-63
2022/02/27 04:03:40;;;;;;;;;8.25;2.50;;;;;4.79;54.16;102366.56;5084738;27;46062;-63
2022/02/27 04:06:05;;;;;;;;;10.50;5.00;;;;;4.78;55.18;102359.63;5084797;28;45188;-63
2022/02/27 04:08:31;;;;;;;;;7.75;6.00;;;;;4.75;54.50;102361.38;5084570;28;45298;-63
2022/02/27 04:10:57;;;;;;;;;6.50;4.00;;;;;4.74;55.21;102367.50;5084823;27;45204;-63
2022/02/27 04:13:22;;;;;;;;;5.00;5.00;;;;;4.74;54.97;102364.88;5084652;28;45798;-62
2022/02/27 04:15:48;;;;;;;;;3.00;2.00;;;;;4.73;54.48;102364.88;5084732;27;45189;-63
2022/02/27 04:18:13;;;;;;;;;7.25;4.00;;;;;4.72;54.46;102361.41;5084854;28;45291;-63
2022/02/27 04:20:39;;;;;;;;;8.00;6.00;;;;;4.71;54.61;102358.81;5084793;28;45218;-62
2022/02/27 04:23:04;;;;;;;;;6.00;5.00;;;;;4.69;54.67;102353.59;5084167;27;45177;-62
2022/02/27 04:25:30;;;;;;;;;9.00;3.50;;;;;4.69;54.92;102352.75;5084678;27;45414;-63
2022/02/27 04:27:58;;;;;;;;;7.25;4.00;;;;;4.67;55.34;102355.38;5084487;27;45305;-63
2022/02/27 04:30:23;;;;;;;;;5.25;4.25;;;;;4.66;54.40;102360.56;5084585;28;45365;-62
2022/02/27 04:32:49;;;;;;;;;4.75;4.75;;;;;4.64;54.98;102355.38;5084106;27;45437;-63
2022/02/27 04:35:15;;;;;;;;;6.75;4.25;;;;;4.63;54.39;102363.22;5092085;27;45347;-62
2022/02/27 04:37:41;;;;;;;;;13.75;4.50;;;;;4.62;54.78;102353.66;5084143;27;45133;-62
2022/02/27 04:40:07;;;;;;;;;4.00;4.00;;;;;4.62;55.28;102351.06;5086482;27;45137;-63
2022/02/27 04:42:33;;;;;;;;;4.00;2.00;;;;;4.61;54.77;102358.03;5100983;27;46081;-63
2022/02/27 04:44:58;;;;;;;;;9.00;5.00;;;;;4.60;54.69;102361.53;5084477;27;45216;-63
2022/02/27 04:47:24;;;;;;;;;5.75;4.75;;;;;4.59;55.17;102361.53;5083872;27;45159;-63
2022/02/27 04:49:50;;;;;;;;;8.00;2.50;;;;;4.57;54.63;102366.75;5084295;27;45232;-63
2022/02/27 04:52:16;;;;;;;;;6.00;4.00;;;;;4.55;54.77;102352.00;5083654;27;45488;-63
2022/02/27 04:54:45;;;;;;;;;4.00;4.00;;;;;4.54;55.22;102356.34;5084169;27;45311;-62
2022/02/27 04:57:11;;;;;;;;;7.25;4.00;;;;;4.54;54.91;102355.47;5083979;27;45240;-63
2022/02/27 04:59:38;;;;;;;;;4.25;4.25;;;;;4.54;55.23;102353.72;5084087;28;45248;-63
2022/02/27 05:02:04;;;;;;;;;3.50;3.50;;;;;4.52;55.09;102350.28;5083689;27;45280;-62
2022/02/27 05:04:30;;;;;;;;;5.25;5.00;;;;;4.51;54.83;102347.69;5083994;27;45418;-62
2022/02/27 05:06:55;;;;;;;;;7.00;5.50;;;;;4.49;55.21;102351.16;5083896;28;45327;-63
2022/02/27 05:09:21;;;;;;;;;6.00;5.00;;;;;4.48;55.38;102348.56;5082750;28;45555;-63
2022/02/27 05:11:48;;;;;;;;;5.50;4.00;;;;;4.45;54.85;102352.06;5083799;27;45969;-62
2022/02/27 05:14:14;;;;;;;;;6.00;5.00;;;;;4.42;55.08;102357.31;5083893;27;45275;-63
2022/02/27 05:16:40;;;;;;;;;8.25;6.50;;;;;4.38;55.12;102358.22;5083646;28;45307;-62
2022/02/27 05:19:07;;;;;;;;;7.50;4.25;;;;;4.38;54.92;102360.81;5083799;27;45216;-63
2022/02/27 05:21:32;;;;;;;;;7.50;4.25;;;;;4.34;55.08;102356.47;5083681;27;45267;-62
2022/02/27 05:23:58;;;;;;;;;9.00;4.00;;;;;4.34;55.13;102353.00;5083354;28;45361;-62
2022/02/27 05:26:23;;;;;;;;;6.00;4.25;;;;;4.33;55.41;102346.06;5083587;28;45297;-62
2022/02/27 05:28:50;;;;;;;;;7.50;7.00;;;;;4.33;55.12;102351.28;5083646;27;45399;-63
2022/02/27 05:31:15;;;;;;;;;8.75;4.75;;;;;4.32;54.99;102350.41;5083170;27;45367;-63
2022/02/27 05:33:41;;;;;;;;;7.00;5.00;;;;;4.30;55.33;102349.56;5088346;27;45459;-63
2022/02/27 05:36:07;;;;;;;;;7.00;5.50;;;;;4.28;55.51;102351.34;5086940;27;45312;-63
2022/02/27 05:38:32;;;;;;;;;4.50;4.50;;;;;4.28;55.66;102343.50;5083308;28;45390;-63
2022/02/27 05:40:58;;;;;;;;;7.25;5.00;;;;;4.26;55.10;102342.63;5092084;27;46435;-62
2022/02/27 05:43:23;;;;;;;;;5.00;5.00;;;;;4.26;55.56;102342.63;5094176;27;45385;-63
2022/02/27 05:45:49;;;;;;;;;5.75;5.00;;;;;4.23;55.60;102332.25;5083192;27;45314;-62
2022/02/27 05:48:14;;;;;;;;;8.25;5.50;;;;;4.22;54.96;102329.66;5083092;27;45329;-62
2022/02/27 05:50:40;;;;;;;;;6.50;5.00;;;;;4.19;55.40;102331.41;5082876;27;45887;-63
2022/02/27 05:53:06;;;;;;;;;9.25;5.50;;;;;4.16;54.92;102328.81;5064741;28;45276;-63
2022/02/27 05:55:32;;;;;;;;;12.00;7.50;;;;;4.16;55.46;102325.34;5083139;27;45429;-62
2022/02/27 05:57:57;;;;;;;;;5.00;4.00;;;;;4.10;55.52;102331.44;5083235;28;45517;-63
2022/02/27 06:00:23;;;;;;;;;4.50;4.25;;;;;4.09;55.48;102334.94;5082792;27;45200;-62
2022/02/27 06:02:48;;;;;;;;;8.50;4.25;;;;;4.07;55.19;102336.69;5083022;28;45238;-63
2022/02/27 06:05:14;;;;;;;;;6.00;4.25;;;;;4.07;55.34;102330.63;5082918;27;45204;-62
2022/02/27 06:07:39;;;;;;;;;5.00;5.00;;;;;4.06;55.79;102329.75;5082942;28;45297;-63
2022/02/27 06:10:05;;;;;;;;;0.00;0.00;;;;;4.07;55.31;102335.84;5082642;28;45312;-62
2022/02/27 06:12:31;;;;;;;;;8.00;4.75;;;;;4.05;55.02;102333.25;5082847;28;45332;-63
2022/02/27 06:14:57;;;;;;;;;7.50;5.75;;;;;4.05;55.76;102329.78;5082831;27;45517;-63
2022/02/27 06:17:22;;;;;;;;;9.75;4.75;;;;;4.03;55.08;102332.41;5082740;27;45257;-63
2022/02/27 06:19:47;;;;;;;;;8.00;5.25;;;;;4.03;55.29;102331.50;5064337;28;45383;-62
2022/02/27 06:22:13;;;;;;;;;4.00;4.00;;;;;4.03;56.06;102334.09;5082467;27;45350;-63
2022/02/27 06:24:38;;;;;;;;;4.75;4.50;;;;;4.00;55.79;102336.75;5082945;27;45478;-63
2022/02/27 06:27:04;;;;;;;;;5.75;5.75;;;;;3.98;55.86;102328.06;5082845;28;45438;-63
2022/02/27 06:29:30;;;;;;;;;5.75;4.50;;;;;3.98;55.97;102330.69;5082308;28;45311;-63
2022/02/27 06:31:55;;;;;;;;;5.75;4.00;;;;;3.95;56.03;102331.56;5082424;28;45244;-63
2022/02/27 06:34:21;;;;;;;;;4.50;4.25;;;;;3.94;55.53;102335.03;5077848;27;45359;-63
2022/02/27 06:36:46;;;;;;;;;5.00;5.00;;;;;3.95;55.75;102330.69;5082597;28;45624;-63
2022/02/27 06:39:12;;;;;;;;;12.00;4.75;;;;;3.95;56.08;102335.91;5084678;27;45151;-63
2022/02/27 06:41:37;;;;;;;;;4.50;4.50;;;;;3.97;56.10;102344.59;5094147;27;45158;-63
2022/02/27 06:44:03;;;;;;;;;7.00;5.75;;;;;3.95;56.09;102334.19;5087375;27;45219;-63
2022/02/27 06:46:30;;;;;;;;;5.00;4.50;;;;;3.95;55.42;102335.91;5082407;27;45232;-63
2022/02/27 06:48:56;;;;;;;;;9.50;6.00;;;;;3.92;55.78;102332.44;5081702;28;46711;-63
2022/02/27 06:51:22;;;;;;;;;6.75;4.00;;;;;3.95;56.16;102334.19;5082259;28;45426;-63
2022/02/27 06:53:47;;;;;;;;;7.50;5.00;;;;;3.97;55.91;102332.44;5081992;27;45477;-63
2022/02/27 06:56:13;;;;;;;;;8.50;6.25;;;;;3.97;55.57;102323.75;5082651;28;45384;-63
2022/02/27 06:58:39;;;;;;;;;9.75;5.00;;;;;4.01;55.91;102334.13;5081894;28;45461;-63
2022/02/27 07:01:05;;;;;;;;;10.50;5.00;;;;;4.01;55.67;102333.25;5082055;28;45334;-63
2022/02/27 07:03:30;;;;;;;;;5.25;5.25;;;;;4.01;55.51;102323.69;5082079;28;45334;-62
2022/02/27 07:05:56;;;;;;;;;8.50;6.50;;;;;4.06;55.78;102337.56;5072392;27;45369;-63
2022/02/27 07:08:21;;;;;;;;;8.00;5.00;;;;;4.09;55.18;102334.06;5086903;27;45224;-63
2022/02/27 07:10:47;;;;;;;;;4.00;4.00;;;;;4.14;55.41;102335.78;5081963;28;45274;-63
2022/02/27 07:13:12;;;;;;;;;5.00;5.00;;;;;4.18;55.49;102342.69;5081895;28;45326;-62
2022/02/27 07:15:38;;;;;;;;;7.50;3.00;;;;;4.23;55.13;102341.81;5064076;28;45249;-62
2022/02/27 07:18:05;;;;;;;;;5.75;5.00;;;;;4.28;55.38;102342.66;5081611;27;46164;-62
2022/02/27 07:20:31;;;;;;;;;6.50;5.00;;;;;4.34;54.97;102338.22;5081946;28;45418;-63
2022/02/27 07:22:57;;;;;;;;;8.50;4.25;;;;;4.40;55.00;102337.31;5081474;28;45413;-63
2022/02/27 07:25:22;;;;;;;;;6.00;5.00;;;;;4.45;54.96;102343.38;5082098;28;45437;-63
2022/02/27 07:27:48;;;;;;;;;5.00;5.00;;;;;4.48;55.03;102340.72;5063028;28;46015;-62
2022/02/27 07:30:14;;;;;;;;;10.75;3.50;;;;;4.51;54.57;102332.91;5081558;28;45386;-62
2022/02/27 07:32:39;;;;;;;;;6.00;5.00;;;;;4.55;54.40;102331.13;5081065;27;45290;-62
2022/02/27 07:35:05;;;;;;;;;6.00;4.25;;;;;4.57;54.06;102329.34;5090549;27;45561;-62
2022/02/27 07:37:31;;;;;;;;;5.25;5.25;;;;;4.59;54.39;102328.47;5076501;27;46422;-62
2022/02/27 07:39:56;;;;;;;;;5.00;4.25;;;;;4.64;54.37;102333.63;5084468;27;45244;-62
2022/02/27 07:42:22;;;;;;;;;10.00;5.75;;;;;4.65;54.23;102331.00;5098525;27;45178;-62
2022/02/27 07:44:47;;;;;;;;;7.75;4.50;;;;;4.68;54.03;102337.97;5081738;28;45170;-62
2022/02/27 07:47:13;;;;;;;;;1.75;1.75;;;;;4.72;54.25;102344.88;5080920;28;46406;-63
2022/02/27 07:49:39;;;;;;;;;4.75;4.75;;;;;4.73;53.47;102341.38;5081384;27;45212;-62
2022/02/27 07:52:05;;;;;;;;;5.25;3.50;;;;;4.76;53.86;102351.81;5081083;28;45232;-63
2022/02/27 07:54:30;;;;;;;;;8.25;5.75;;;;;4.81;53.73;102346.53;5081379;28;45410;-63
2022/02/27 07:56:56;;;;;;;;;8.50;4.00;;;;;4.85;53.71;102345.63;5080987;28;45977;-62
2022/02/27 07:59:22;;;;;;;;;6.00;4.00;;;;;4.86;53.65;102337.78;5081303;28;45302;-62
2022/02/27 08:01:47;;;;;;;;;6.50;4.50;;;;;4.90;53.10;102347.31;5081041;28;45317;-62
2022/02/27 08:04:13;;;;;;;;;5.50;4.50;;;;;4.91;53.39;102338.59;5081307;28;45429;-62
2022/02/27 08:06:39;;;;;;;;;5.25;4.25;;;;;4.98;53.27;102342.03;5080893;27;46149;-62
2022/02/27 08:09:05;;;;;;;;;8.25;5.00;;;;;5.01;53.41;102348.06;5080764;27;45330;-63
2022/02/27 08:11:31;;;;;;;;;7.50;5.25;;;;;5.07;52.32;102344.53;5081243;28;45225;-63
2022/02/27 08:13:57;;;;;;;;;7.25;3.00;;;;;5.13;52.80;102356.63;5081251;28;45241;-63
2022/02/27 08:16:23;;;;;;;;;5.00;4.00;;;;;5.20;52.88;102348.72;5080657;28;46399;-63
2022/02/27 08:18:49;;;;;;;;;4.50;3.50;;;;;5.25;52.79;102344.31;5080944;28;45232;-62
2022/02/27 08:21:14;;;;;;;;;5.50;4.75;;;;;5.33;53.04;102347.72;5080856;28;45236;-62
2022/02/27 08:23:40;;;;;;;;;5.00;3.25;;;;;5.43;51.95;102339.75;5080959;28;45329;-63
2022/02/27 08:26:06;;;;;;;;;7.00;4.00;;;;;5.49;52.01;102356.22;5080672;27;45384;-63
2022/02/27 08:28:31;;;;;;;;;8.00;5.50;;;;;5.55;51.60;102347.47;5070291;27;45296;-62
2022/02/27 08:31:01;;;;;;;;;6.25;4.75;;;;;5.65;52.00;102358.66;5086404;27;45363;-63
2022/02/27 08:33:27;;;;;;;;;6.75;4.75;;;;;5.72;51.25;102365.53;5083862;27;45620;-63
2022/02/27 08:35:53;;;;;;;;;4.50;4.25;;;;;5.79;51.23;102367.19;5086328;27;46039;-63
2022/02/27 08:38:20;;;;;;;;;8.75;6.00;;;;;5.84;50.91;102368.84;5080722;28;45316;-63
2022/02/27 08:40:46;;;;;;;;;6.00;4.00;;;;;5.93;50.74;102361.81;5088465;27;45295;-63
2022/02/27 08:43:11;;;;;;;;;3.50;1.00;;;;;5.99;50.85;102365.19;5074720;28;45377;-63
2022/02/27 08:45:37;;;;;;;;;6.75;5.00;;;;;6.05;51.07;102359.88;5083826;27;45653;-63
2022/02/27 08:48:02;;;;;;;;;5.00;5.00;;;;;6.04;50.35;102357.28;5084165;28;45271;-63
2022/02/27 08:50:28;;;;;;;;;6.50;4.50;;;;;6.07;50.05;102355.47;5084139;28;45245;-63
2022/02/27 08:52:54;;;;;;;;;6.25;6.00;;;;;6.11;50.37;102361.53;5084359;27;45307;-63
2022/02/27 08:55:19;;;;;;;;;6.00;3.75;;;;;6.13;49.78;102359.75;5084351;27;45351;-63
2022/02/27 08:57:46;;;;;;;;;6.00;5.50;;;;;6.17;50.63;102364.06;5084301;27;45363;-63
2022/02/27 09:00:13;;;;;;;;;8.00;4.50;;;;;6.20;49.64;102360.53;5084032;27;45230;-63
2022/02/27 09:02:39;;;;;;;;;5.75;5.00;;;;;6.23;49.21;102370.94;5084096;28;45454;-63
2022/02/27 09:05:05;;;;;;;;;4.00;3.25;;;;;6.25;49.31;102364.81;5083795;27;45967;-63
2022/02/27 09:07:35;;;;;;;;;4.50;4.50;;;;;6.30;48.66;102365.59;5083760;28;45421;-66
2022/02/27 09:10:01;;;;;;;;;5.00;5.00;;;;;6.34;49.04;102371.66;5083763;28;45453;-63
2022/02/27 09:12:26;;;;;;;;;1.00;1.00;;;;;6.42;49.30;102375.88;5084148;28;45306;-63
2022/02/27 09:14:52;;;;;;;;;2.25;2.00;;;;;6.49;48.86;102374.03;5083580;28;46185;-63
2022/02/27 09:17:18;;;;;;;;;6.50;5.75;;;;;6.57;48.87;102373.91;5083715;28;45279;-63
2022/02/27 09:19:45;;;;;;;;;1.00;1.00;;;;;6.65;48.53;102372.03;5083705;27;45441;-63
2022/02/27 09:22:11;;;;;;;;;4.50;4.00;;;;;6.74;48.15;102371.00;5083856;27;45720;-63
2022/02/27 09:24:36;;;;;;;;;6.75;4.00;;;;;6.78;47.46;102364.81;5083404;28;46081;-63
2022/02/27 09:27:02;;;;;;;;;6.75;3.50;;;;;6.84;47.73;102369.94;5083687;28;45252;-63
2022/02/27 09:29:27;;;;;;;;;4.50;2.50;;;;;6.91;47.35;102361.97;5083372;27;45254;-63
2022/02/27 09:31:54;;;;;;;;;2.00;1.00;;;;;6.97;47.17;102355.75;5083694;27;45485;-63
2022/02/27 09:34:20;;;;;;;;;3.50;2.00;;;;;7.08;46.94;102364.25;5091307;27;45306;-63
2022/02/27 09:36:46;;;;;;;;;3.00;3.00;;;;;7.14;47.05;102360.69;5083690;28;45181;-63
2022/02/27 09:39:11;;;;;;;;;5.00;3.50;;;;;7.19;46.60;102367.56;5085091;27;45240;-63
2022/02/27 09:41:37;;;;;;;;;2.75;2.75;;;;;7.24;46.25;102359.59;5095499;27;45247;-63
2022/02/27 09:44:04;;;;;;;;;5.50;3.00;;;;;7.26;46.85;102361.28;5087959;27;45428;-63
2022/02/27 09:46:31;;;;;;;;;3.00;3.00;;;;;7.29;46.52;102365.63;5083507;27;45249;-63
2022/02/27 09:48:58;;;;;;;;;5.75;2.50;;;;;7.33;46.47;102366.41;5083114;27;45292;-63
2022/02/27 09:51:24;;;;;;;;;5.50;5.00;;;;;7.31;45.72;102358.59;5083263;27;45580;-63
2022/02/27 09:53:51;;;;;;;;;3.50;3.00;;;;;7.30;45.81;102362.09;5082908;27;45372;-63
2022/02/27 09:56:18;;;;;;;;;2.00;2.00;;;;;7.35;46.06;102352.41;5082792;27;45219;-63
2022/02/27 09:58:43;;;;;;;;;5.00;2.50;;;;;7.37;45.76;102352.38;5083167;27;45204;-62
2022/02/27 10:01:09;;;;;;;;;3.00;3.00;;;;;7.39;45.73;102350.56;5083046;27;45265;-62
2022/02/27 10:03:35;;;;;;;;;4.00;3.00;;;;;7.44;45.73;102349.59;5082762;27;45320;-63
2022/02/27 10:06:07;;;;;;;;;3.00;3.00;;;;;7.52;45.75;102345.06;5082843;28;45403;-63
2022/02/27 10:08:40;;;;;;;;;8.25;3.00;;;;;7.63;45.64;102349.19;5082573;27;45236;-63
2022/02/27 10:11:06;;;;;;;;;3.25;2.50;;;;;7.69;45.26;102352.56;5083050;27;45479;-63
2022/02/27 10:13:40;;;;;;;;;3.00;3.00;;;;;7.74;45.04;102361.22;5082885;28;46369;-63
2022/02/27 10:16:11;;;;;;;;;5.75;5.25;;;;;7.78;44.93;102362.00;5082451;27;45260;-63
2022/02/27 10:18:39;;;;;;;;;9.00;6.75;;;;;7.81;44.95;102359.28;5082761;27;45532;-63
2022/02/27 10:21:04;;;;;;;;;6.75;2.00;;;;;7.86;45.13;102357.44;5082815;28;45426;-63
2022/02/27 10:23:30;;;;;;;;;6.25;5.00;;;;;7.87;44.73;102351.28;5082257;28;46327;-63
2022/02/27 10:25:55;;;;;;;;;7.00;6.00;;;;;7.92;45.16;102344.19;5082646;28;45436;-63
2022/02/27 10:28:21;;;;;;;;;5.25;3.50;;;;;8.00;44.75;102339.63;5082692;27;45313;-63
2022/02/27 10:30:48;;;;;;;;;3.25;3.25;;;;;8.09;44.70;102349.06;5082407;28;46063;-63
2022/02/27 10:33:13;;;;;;;;;7.25;5.25;;;;;8.19;44.52;102344.44;5083329;27;46550;-63
2022/02/27 10:35:48;;;;;;;;;5.25;3.00;;;;;8.28;44.55;102344.22;5089189;27;45344;-63
2022/02/27 10:41:14;;;;;;;;;4.00;3.00;;;;;8.46;44.34;102358.72;5090945;27;45587;-63
2022/02/27 10:43:44;;;;;;;;;9.00;3.50;;;;;8.54;43.81;102357.63;5090411;27;46347;-63
2022/02/27 10:46:12;;;;;;;;;7.25;4.50;;;;;8.54;43.91;102355.00;5082106;28;45268;-63
2022/02/27 10:48:39;;;;;;;;;5.00;5.00;;;;;8.54;43.61;102360.25;5082335;27;45418;-63
2022/02/27 10:51:05;;;;;;;;;9.25;5.00;;;;;8.53;43.68;102340.16;5082249;28;45276;-63
2022/02/27 10:53:38;;;;;;;;;6.25;5.00;;;;;8.55;43.51;102345.34;5081955;28;46133;-63
2022/02/27 10:56:06;;;;;;;;;4.50;3.00;;;;;8.57;43.83;102340.91;5089844;27;45295;-63
2022/02/27 10:58:38;;;;;;;;;6.25;5.00;;;;;8.61;43.71;102338.19;5102574;27;45295;-63
2022/02/27 11:01:15;;;;;;;;;3.00;3.00;;;;;8.62;43.62;102329.41;5102577;27;45331;-63
2022/02/27 11:03:42;;;;;;;;;6.00;3.50;;;;;8.63;44.03;102340.78;5102318;27;46130;-63
2022/02/27 11:06:09;;;;;;;;;9.75;5.00;;;;;8.66;43.70;102338.91;5101905;27;45261;-63
2022/02/27 11:08:35;;;;;;;;;6.75;4.50;;;;;8.72;43.48;102335.28;5102242;27;45403;-63
2022/02/27 11:11:01;;;;;;;;;5.25;2.75;;;;;8.78;43.52;102334.25;5102443;27;45176;-63
2022/02/27 11:13:27;;;;;;;;;8.50;4.75;;;;;8.86;43.32;102343.66;5102218;27;46214;-63
2022/02/27 11:15:54;;;;;;;;;4.75;3.00;;;;;8.90;42.99;102337.41;5102204;27;45361;-63
2022/02/27 11:18:20;;;;;;;;;4.75;4.75;;;;;8.91;42.93;102341.75;5102266;27;45515;-63
2022/02/27 11:20:46;;;;;;;;;7.50;5.75;;;;;8.92;42.88;102338.22;5102300;27;45465;-63
2022/02/27 11:23:12;;;;;;;;;6.25;5.75;;;;;8.99;42.87;102340.69;5101817;27;45259;-63
2022/02/27 11:25:38;;;;;;;;;5.25;3.00;;;;;9.00;43.17;102343.28;5102240;27;45344;-63
2022/02/27 11:28:13;;;;;;;;;5.25;5.25;;;;;9.03;43.03;102344.97;5102006;27;45211;-63
2022/02/27 11:30:42;;;;;;;;;5.00;2.75;;;;;9.03;42.79;102337.97;5101866;27;45234;-63